Time;durP1;ratioP1;P1;durP2;ratioP2;P2;SDS_P1;SDS_P2;PMS_P1;PMS_P2;Temp;Humidity;BMP_temperature;BMP_pressure;BME280_temperature;BME280_humidity;BME280_pressure;Samples;Min_cycle;Max_cycle;Signal;HPM_P1;HPM_P2
2024/03/24 00:01:51;;;;;;;8.85;4.22;;;5.90;69.50;;;;;;5011420;28;20436;-73
2024/03/24 00:04:17;;;;;;;6.10;3.60;;;5.90;70.00;;;;;;5012089;28;20427;-73
2024/03/24 00:06:42;;;;;;;7.90;3.97;;;6.00;69.50;;;;;;5012102;28;20480;-72
2024/03/24 00:09:10;;;;;;;6.30;4.60;;;6.00;70.10;;;;;;5012123;28;20393;-73
2024/03/24 00:11:36;;;;;;;9.73;4.40;;;5.90;71.10;;;;;;5011537;28;20455;-71
2024/03/24 00:14:03;;;;;;;7.35;4.50;;;5.90;72.60;;;;;;5011926;28;20415;-73
2024/03/24 00:16:29;;;;;;;6.05;4.22;;;5.90;72.90;;;;;;4994308;28;20475;-74
2024/03/24 00:18:54;;;;;;;6.83;4.30;;;5.90;71.70;;;;;;4994160;28;20981;-72
2024/03/24 00:21:20;;;;;;;7.25;4.60;;;5.90;73.00;;;;;;5011370;28;20452;-74
2024/03/24 00:23:46;;;;;;;7.85;4.80;;;5.90;73.60;;;;;;5012193;28;20385;-74
2024/03/24 00:26:12;;;;;;;9.43;5.20;;;5.70;74.30;;;;;;5015868;28;20385;-73
2024/03/24 00:28:37;;;;;;;11.70;4.93;;;5.70;74.70;;;;;;5019183;28;20715;-73
2024/03/24 00:31:03;;;;;;;7.93;5.27;;;5.60;76.90;;;;;;5018563;28;20380;-74
2024/03/24 00:33:29;;;;;;;10.60;5.10;;;5.60;76.30;;;;;;5013605;28;20931;-71
2024/03/24 00:35:54;;;;;;;7.77;5.60;;;5.60;77.20;;;;;;5011587;28;20728;-74
2024/03/24 00:38:20;;;;;;;9.70;5.30;;;5.50;78.50;;;;;;5011512;28;20400;-73
2024/03/24 00:40:45;;;;;;;19.13;5.90;;;6.30;78.80;;;;;;5011425;28;20725;-72
2024/03/24 00:43:11;;;;;;;12.93;6.10;;;5.50;79.60;;;;;;5011663;28;20471;-73
2024/03/24 00:45:37;;;;;;;8.48;5.78;;;5.50;80.20;;;;;;5015552;28;20389;-73
2024/03/24 00:48:03;;;;;;;9.95;5.75;;;5.50;79.90;;;;;;5021441;28;20765;-73
2024/03/24 00:50:29;;;;;;;12.80;6.70;;;5.70;77.90;;;;;;5021857;28;20409;-74
2024/03/24 00:52:54;;;;;;;10.80;6.03;;;5.60;78.30;;;;;;5018677;28;20471;-75
2024/03/24 00:55:20;;;;;;;10.63;6.73;;;5.60;77.70;;;;;;5018456;28;20934;-72
2024/03/24 00:57:46;;;;;;;10.67;6.03;;;5.60;78.60;;;;;;5015194;28;20404;-72
2024/03/24 01:00:12;;;;;;;13.77;6.13;;;5.50;79.70;;;;;;5011141;28;20802;-73
2024/03/24 01:02:37;;;;;;;9.18;6.50;;;5.50;79.00;;;;;;5011448;28;20404;-73
2024/03/24 01:05:04;;;;;;;11.20;6.10;;;5.60;78.20;;;;;;5011435;28;20381;-72
2024/03/24 01:07:30;;;;;;;9.05;5.95;;;5.50;79.30;;;;;;5011119;28;20856;-73
2024/03/24 01:09:56;;;;;;;10.70;6.55;;;5.60;79.70;;;;;;5011381;28;20385;-74
2024/03/24 01:12:23;;;;;;;11.00;5.88;;;5.70;78.50;;;;;;5011143;28;20391;-73
2024/03/24 01:14:49;;;;;;;9.80;6.28;;;5.80;76.00;;;;;;5010866;28;20399;-72
2024/03/24 01:17:15;;;;;;;8.38;5.97;;;5.80;74.70;;;;;;5010945;28;20896;-72
2024/03/24 01:19:40;;;;;;;10.33;6.00;;;5.90;74.70;;;;;;5013427;28;20415;-71
2024/03/24 01:22:06;;;;;;;11.63;6.20;;;5.90;74.80;;;;;;5018849;28;20401;-72
2024/03/24 01:24:32;;;;;;;10.37;5.93;;;5.90;74.20;;;;;;5018174;28;20865;-74
2024/03/24 01:26:57;;;;;;;8.45;6.05;;;6.00;71.70;;;;;;5020093;28;20393;-74
2024/03/24 01:29:23;;;;;;;10.25;5.50;;;6.00;72.00;;;;;;5003903;28;20389;-72
2024/03/24 01:31:48;;;;;;;9.13;5.25;;;6.10;71.10;;;;;;5021152;28;20429;-72
2024/03/24 01:34:14;;;;;;;11.40;6.05;;;6.20;70.30;;;;;;5014690;28;20385;-72
2024/03/24 01:36:39;;;;;;;11.02;5.97;;;6.20;70.40;;;;;;5012808;28;20400;-72
2024/03/24 01:39:05;;;;;;;8.77;5.60;;;6.20;69.50;;;;;;5012114;28;20409;-71
2024/03/24 01:41:31;;;;;;;12.43;5.45;;;6.30;69.30;;;;;;5011912;28;20405;-72
2024/03/24 01:43:56;;;;;;;10.27;4.70;;;6.30;68.10;;;;;;5015428;28;20392;-72
2024/03/24 01:46:22;;;;;;;9.60;5.15;;;6.30;68.40;;;;;;5013008;28;20395;-73
2024/03/24 01:48:48;;;;;;;10.73;5.53;;;6.30;67.70;;;;;;5014143;28;20385;-72
2024/03/24 01:51:15;;;;;;;10.60;5.83;;;6.40;66.60;;;;;;5016825;28;20420;-75
2024/03/24 01:53:41;;;;;;;11.77;5.68;;;6.40;66.40;;;;;;5016448;28;20403;-74
2024/03/24 01:56:07;;;;;;;9.13;6.13;;;6.40;66.10;;;;;;5014680;28;20448;-73
2024/03/24 01:58:35;;;;;;;12.20;5.68;;;6.40;66.40;;;;;;5014943;28;20397;-72
2024/03/24 02:01:02;;;;;;;11.35;6.18;;;6.50;66.40;;;;;;5014260;28;20407;-73
2024/03/24 02:03:28;;;;;;;9.38;5.60;;;6.50;66.10;;;;;;5016135;28;20472;-73
2024/03/24 02:05:53;;;;;;;11.27;5.93;;;6.50;65.80;;;;;;5014637;28;20510;-73
2024/03/24 02:08:19;;;;;;;8.10;5.70;;;6.50;66.50;;;;;;5015000;28;20384;-72
2024/03/24 02:10:44;;;;;;;8.63;5.72;;;6.50;66.10;;;;;;5014919;28;20389;-74
2024/03/24 02:13:10;;;;;;;9.23;5.97;;;6.50;67.20;;;;;;5014501;28;20417;-73
2024/03/24 02:15:36;;;;;;;12.68;6.13;;;6.50;65.60;;;;;;5014205;28;20421;-72
2024/03/24 02:18:01;;;;;;;7.60;5.20;;;6.50;65.50;;;;;;5014522;28;20475;-72
2024/03/24 02:20:27;;;;;;;9.23;5.50;;;6.50;65.90;;;;;;5014072;28;20396;-73
2024/03/24 02:22:53;;;;;;;11.27;6.23;;;6.50;67.90;;;;;;5013870;28;20472;-72
2024/03/24 02:25:18;;;;;;;9.27;5.93;;;6.40;67.40;;;;;;5014324;28;20393;-74
2024/03/24 02:27:44;;;;;;;11.27;6.00;;;6.50;66.00;;;;;;5037805;23;20502;-71
2024/03/24 02:30:10;;;;;;;11.45;5.60;;;6.50;65.80;;;;;;5015581;28;20388;-70
2024/03/24 02:32:41;;;;;;;8.17;5.47;;;6.60;64.50;;;;;;5033282;28;20379;-70
2024/03/24 02:35:07;;;;;;;10.35;5.47;;;6.60;64.30;;;;;;5033498;28;20409;-69
2024/03/24 02:37:33;;;;;;;15.15;6.07;;;6.60;64.50;;;;;;5033713;28;20757;-70
2024/03/24 02:39:58;;;;;;;11.33;5.50;;;6.70;65.70;;;;;;5033935;28;20418;-71
2024/03/24 02:42:24;;;;;;;12.03;5.43;;;6.70;64.30;;;;;;5033232;28;20817;-69
2024/03/24 02:44:49;;;;;;;8.83;5.30;;;6.60;65.50;;;;;;5032997;28;20867;-68
2024/03/24 02:47:15;;;;;;;9.73;5.37;;;6.70;64.40;;;;;;5032651;28;20754;-69
2024/03/24 02:49:40;;;;;;;13.23;6.20;;;6.70;65.00;;;;;;5014835;28;20877;-70
2024/03/24 02:52:06;;;;;;;8.50;5.80;;;6.70;65.60;;;;;;5032838;28;20885;-71
2024/03/24 02:54:32;;;;;;;10.23;5.80;;;6.70;64.50;;;;;;5032986;28;20935;-70
2024/03/24 02:56:58;;;;;;;10.00;5.67;;;6.70;67.40;;;;;;5032866;28;20397;-70
2024/03/24 02:59:23;;;;;;;11.10;6.20;;;6.60;68.10;;;;;;5031577;28;20407;-70
2024/03/24 03:01:49;;;;;;;11.27;6.25;;;6.60;69.80;;;;;;5032214;28;20460;-69
2024/03/24 03:04:14;;;;;;;9.65;6.32;;;6.50;70.20;;;;;;5032468;28;20390;-71
2024/03/24 03:06:41;;;;;;;10.23;6.35;;;6.50;71.30;;;;;;5032739;28;20467;-70
2024/03/24 03:09:08;;;;;;;11.35;6.32;;;6.50;70.10;;;;;;5032277;28;20394;-70
2024/03/24 03:11:34;;;;;;;10.32;5.80;;;6.60;70.80;;;;;;5032065;28;20430;-70
2024/03/24 03:14:00;;;;;;;9.00;5.63;;;6.40;73.10;;;;;;5032181;28;20391;-70
2024/03/24 03:16:26;;;;;;;12.00;5.97;;;6.50;71.80;;;;;;5032337;28;20391;-70
2024/03/24 03:18:51;;;;;;;11.70;6.10;;;6.50;72.50;;;;;;5014678;28;20443;-70
2024/03/24 03:21:17;;;;;;;10.50;5.77;;;6.40;73.50;;;;;;5031750;28;20966;-70
2024/03/24 03:23:43;;;;;;;11.00;5.82;;;6.40;72.60;;;;;;5032037;28;20429;-71
2024/03/24 03:26:08;;;;;;;13.80;5.60;;;6.40;73.00;;;;;;5032308;28;20386;-70
2024/03/24 03:28:34;;;;;;;9.05;5.68;;;6.40;72.70;;;;;;5031763;28;20398;-70
2024/03/24 03:30:59;;;;;;;11.23;5.00;;;6.30;71.60;;;;;;5031950;28;20395;-70
2024/03/24 03:33:25;;;;;;;11.90;5.35;;;6.30;72.70;;;;;;5032029;28;20406;-70
2024/03/24 03:35:50;;;;;;;8.68;5.05;;;6.30;71.90;;;;;;5031886;28;20375;-68
2024/03/24 03:38:16;;;;;;;9.50;4.80;;;6.30;70.70;;;;;;5031465;28;20391;-69
2024/03/24 03:40:41;;;;;;;10.48;4.68;;;6.30;72.00;;;;;;5031403;28;20417;-69
2024/03/24 03:43:08;;;;;;;7.15;4.30;;;6.30;72.70;;;;;;5031383;28;20418;-71
2024/03/24 03:45:33;;;;;;;9.10;4.35;;;6.30;71.20;;;;;;5031753;28;20882;-70
2024/03/24 03:47:59;;;;;;;7.13;4.37;;;6.30;70.30;;;;;;5031432;28;20414;-70
2024/03/24 03:50:24;;;;;;;8.33;4.60;;;6.40;68.40;;;;;;5031167;28;20735;-71
2024/03/24 03:52:50;;;;;;;7.80;4.60;;;6.40;68.80;;;;;;5031357;28;20383;-70
2024/03/24 03:55:16;;;;;;;9.93;4.65;;;6.40;70.80;;;;;;5031174;28;20391;-70
2024/03/24 03:57:45;;;;;;;10.82;4.60;;;6.40;69.80;;;;;;5031193;28;20784;-69
2024/03/24 04:00:11;;;;;;;7.60;4.05;;;6.40;68.30;;;;;;5030982;28;20394;-70
2024/03/24 04:02:41;;;;;;;6.45;4.22;;;6.40;67.60;;;;;;5031123;28;20406;-69
2024/03/24 04:05:09;;;;;;;5.13;4.10;;;6.40;67.70;;;;;;5031410;28;20383;-70
2024/03/24 04:07:35;;;;;;;6.28;4.10;;;6.30;67.40;;;;;;5031332;28;20387;-70
2024/03/24 04:10:01;;;;;;;6.20;4.40;;;6.30;68.90;;;;;;5031481;28;20409;-71
2024/03/24 04:12:27;;;;;;;6.17;4.30;;;6.30;71.10;;;;;;5031087;28;20862;-70
2024/03/24 04:14:52;;;;;;;10.97;4.60;;;6.30;71.80;;;;;;5031211;28;20395;-68
2024/03/24 04:17:18;;;;;;;9.10;5.30;;;6.30;71.70;;;;;;5030992;28;20458;-69
2024/03/24 04:19:43;;;;;;;8.47;4.67;;;6.40;70.30;;;;;;5030965;28;20502;-69
2024/03/24 04:22:09;;;;;;;8.03;5.00;;;6.30;71.70;;;;;;5014844;28;20398;-70
2024/03/24 04:24:34;;;;;;;18.53;5.70;;;6.30;72.70;;;;;;5033871;28;20405;-70
2024/03/24 04:27:00;;;;;;;10.30;5.17;;;6.30;74.10;;;;;;5034082;28;20391;-70
2024/03/24 04:29:25;;;;;;;9.20;5.40;;;6.40;72.30;;;;;;5016428;28;20403;-69
2024/03/24 04:31:51;;;;;;;11.47;5.10;;;6.40;71.60;;;;;;5033076;28;20903;-68
2024/03/24 04:34:17;;;;;;;10.10;5.13;;;6.50;70.80;;;;;;5032374;28;20393;-70
2024/03/24 04:36:42;;;;;;;9.70;4.70;;;6.50;70.10;;;;;;5032123;28;20394;-70
2024/03/24 04:39:12;;;;;;;9.93;5.20;;;6.50;71.90;;;;;;5032695;28;20456;-70
2024/03/24 04:41:40;;;;;;;12.43;5.47;;;6.40;75.70;;;;;;5032458;28;20815;-69
2024/03/24 04:44:06;;;;;;;9.85;5.55;;;6.40;75.00;;;;;;5032862;28;20399;-71
2024/03/24 04:46:32;;;;;;;12.60;5.30;;;6.30;75.50;;;;;;5021726;28;20379;-70
2024/03/24 04:48:58;;;;;;;9.15;5.20;;;6.40;77.50;;;;;;5037618;28;20506;-70
2024/03/24 04:51:23;;;;;;;10.45;5.70;;;6.30;77.50;;;;;;5033133;28;20423;-71
2024/03/24 04:53:49;;;;;;;11.07;5.03;;;6.30;78.70;;;;;;5014643;28;20750;-70
2024/03/24 04:56:14;;;;;;;12.13;5.25;;;6.30;79.90;;;;;;5033168;28;20497;-70
2024/03/24 04:58:40;;;;;;;9.98;5.47;;;6.30;80.00;;;;;;5031288;28;20387;-71
2024/03/24 05:01:05;;;;;;;11.68;5.75;;;6.30;81.30;;;;;;5012709;28;20482;-70
2024/03/24 05:03:31;;;;;;;11.60;5.75;;;6.30;81.20;;;;;;5032895;28;20403;-70
2024/03/24 05:05:56;;;;;;;9.48;5.20;;;6.20;79.90;;;;;;5033254;28;20866;-70
2024/03/24 05:08:22;;;;;;;9.65;5.20;;;6.30;81.30;;;;;;5032594;28;20384;-71
2024/03/24 05:10:47;;;;;;;15.05;5.13;;;6.30;82.70;;;;;;5032145;28;20383;-69
2024/03/24 05:13:13;;;;;;;9.07;4.80;;;6.30;80.00;;;;;;5031774;28;20391;-70
2024/03/24 05:15:39;;;;;;;10.10;5.05;;;6.20;80.70;;;;;;5033802;28;20440;-70
2024/03/24 05:18:07;;;;;;;8.88;4.80;;;6.20;78.90;;;;;;5031810;28;20472;-71
2024/03/24 05:20:36;;;;;;;11.55;5.50;;;6.20;81.30;;;;;;5032661;28;20394;-70
2024/03/24 05:23:03;;;;;;;9.73;5.05;;;6.20;81.80;;;;;;5033298;28;20533;-70
2024/03/24 05:25:29;;;;;;;13.48;5.70;;;6.10;85.90;;;;;;5037201;28;20461;-70
2024/03/24 05:27:55;;;;;;;12.98;5.53;;;6.10;87.80;;;;;;5036012;28;20474;-70
2024/03/24 05:30:20;;;;;;;11.60;5.37;;;6.20;80.50;;;;;;5034072;28;20470;-69
2024/03/24 05:32:46;;;;;;;10.37;5.30;;;6.20;82.20;;;;;;5034226;28;20394;-70
2024/03/24 05:35:12;;;;;;;10.82;5.93;;;6.20;83.00;;;;;;5017875;28;20387;-69
2024/03/24 05:37:38;;;;;;;11.77;5.90;;;6.20;83.70;;;;;;5035273;28;20475;-70
2024/03/24 05:40:04;;;;;;;10.18;5.55;;;6.20;83.60;;;;;;5034186;28;20382;-70
2024/03/24 05:42:29;;;;;;;10.60;5.90;;;6.20;84.30;;;;;;5035149;28;20454;-68
2024/03/24 05:44:55;;;;;;;13.52;6.03;;;6.20;85.70;;;;;;5016905;28;20430;-71
2024/03/24 05:47:20;;;;;;;10.65;5.68;;;6.30;85.40;;;;;;5034657;28;20425;-71
2024/03/24 05:49:46;;;;;;;15.60;6.05;;;6.30;82.30;;;;;;5034542;28;20387;-71
2024/03/24 05:52:11;;;;;;;13.30;5.70;;;6.40;82.60;;;;;;5034458;28;20415;-70
2024/03/24 05:54:37;;;;;;;11.50;5.43;;;6.30;82.40;;;;;;5016832;28;20427;-69
2024/03/24 05:57:03;;;;;;;14.40;5.82;;;6.40;84.00;;;;;;5033709;28;20390;-71
2024/03/24 05:59:28;;;;;;;13.35;6.47;;;6.40;84.10;;;;;;5034245;28;20935;-70
2024/03/24 06:01:54;;;;;;;15.35;6.35;;;6.30;85.40;;;;;;5034060;28;20406;-71
2024/03/24 06:04:19;;;;;;;12.82;5.70;;;6.40;84.80;;;;;;5034384;28;20398;-70
2024/03/24 06:06:45;;;;;;;14.02;6.00;;;6.50;79.30;;;;;;5034068;28;20477;-70
2024/03/24 06:09:10;;;;;;;16.00;5.93;;;6.50;81.20;;;;;;5033802;28;20813;-70
2024/03/24 06:11:36;;;;;;;11.15;5.82;;;6.50;82.20;;;;;;5033533;28;20792;-70
2024/03/24 06:14:02;;;;;;;20.98;6.97;;;6.60;81.00;;;;;;5035152;28;20391;-70
2024/03/24 06:16:27;;;;;;;16.15;6.30;;;6.70;78.40;;;;;;5034669;28;20896;-69
2024/03/24 06:18:54;;;;;;;14.70;6.85;;;6.70;77.10;;;;;;5039150;28;20390;-69
2024/03/24 06:21:20;;;;;;;14.27;6.13;;;6.80;75.90;;;;;;5037444;28;20387;-71
2024/03/24 06:23:46;;;;;;;15.37;6.30;;;6.90;74.40;;;;;;5034223;28;20386;-71
2024/03/24 06:26:12;;;;;;;21.88;6.40;;;6.90;71.30;;;;;;5033998;28;20390;-70
2024/03/24 06:28:37;;;;;;;24.85;5.80;;;7.00;70.40;;;;;;5034012;28;20478;-71
2024/03/24 06:31:04;;;;;;;15.10;6.20;;;7.00;70.60;;;;;;5033978;28;20419;-70
2024/03/24 06:33:29;;;;;;;14.93;6.43;;;7.10;71.00;;;;;;5033755;28;20466;-70
2024/03/24 06:35:55;;;;;;;12.18;5.68;;;7.10;70.60;;;;;;5033755;28;20518;-70
2024/03/24 06:38:20;;;;;;;18.17;5.80;;;7.10;68.30;;;;;;5033919;28;20387;-70
2024/03/24 06:40:46;;;;;;;19.55;6.05;;;7.10;66.70;;;;;;5034003;28;20392;-70
2024/03/24 06:43:20;;;;;;;20.73;6.07;;;7.10;66.90;;;;;;5034005;28;20414;-70
2024/03/24 06:45:48;;;;;;;16.88;6.38;;;7.10;69.70;;;;;;5034022;28;20391;-69
2024/03/24 06:48:14;;;;;;;18.77;5.93;;;7.10;68.30;;;;;;5034171;28;20457;-70
2024/03/24 06:50:40;;;;;;;13.90;5.40;;;7.20;67.50;;;;;;5033768;28;20383;-70
2024/03/24 06:53:05;;;;;;;17.13;4.80;;;7.20;67.20;;;;;;5033087;28;20387;-70
2024/03/24 06:55:31;;;;;;;12.60;4.70;;;7.20;66.50;;;;;;5034604;28;20387;-71
2024/03/24 06:57:56;;;;;;;15.27;5.17;;;7.10;64.90;;;;;;5034727;28;20402;-70
2024/03/24 07:00:22;;;;;;;5.10;1.90;;;7.20;67.10;;;;;;5017485;28;20482;-70
2024/03/24 07:02:49;;;;;;;3.10;1.80;;;5.40;79.00;;;;;;5034538;28;20460;-70
2024/03/24 07:05:15;;;;;;;7.07;2.58;;;4.60;90.00;;;;;;5034792;28;20464;-71
2024/03/24 07:07:41;;;;;;;7.72;3.80;;;4.00;98.50;;;;;;5018168;28;20738;-70
2024/03/24 07:10:07;;;;;;;9.65;4.75;;;3.50;99.90;;;;;;5035574;28;20445;-70
2024/03/24 07:12:34;;;;;;;9.98;4.75;;;2.90;99.90;;;;;;5035140;28;20399;-69
2024/03/24 07:14:59;;;;;;;10.05;5.53;;;2.90;99.90;;;;;;5035127;28;20402;-69
2024/03/24 07:17:25;;;;;;;11.20;5.37;;;3.20;99.90;;;;;;5017539;28;20449;-70
2024/03/24 07:19:50;;;;;;;11.03;5.50;;;3.50;99.90;;;;;;5034320;28;20441;-70
2024/03/24 07:22:16;;;;;;;9.35;5.03;;;3.70;99.90;;;;;;5033791;28;20464;-70
2024/03/24 07:24:42;;;;;;;10.05;5.10;;;3.80;99.90;;;;;;5033828;28;20387;-71
2024/03/24 07:27:08;;;;;;;10.23;4.90;;;4.00;99.90;;;;;;5033329;28;20405;-71
2024/03/24 07:29:33;;;;;;;13.68;5.03;;;4.10;99.90;;;;;;5037149;28;20391;-70
2024/03/24 07:31:59;;;;;;;10.80;5.72;;;4.30;99.90;;;;;;5036022;28;20391;-71
2024/03/24 07:34:25;;;;;;;13.07;6.07;;;4.50;99.90;;;;;;5036238;28;20387;-70
2024/03/24 07:36:51;;;;;;;17.70;7.68;;;4.60;99.90;;;;;;5036112;28;20395;-71
2024/03/24 07:39:16;;;;;;;13.27;6.50;;;4.80;99.90;;;;;;5036218;28;20525;-70
2024/03/24 07:41:42;;;;;;;13.63;6.97;;;5.00;99.90;;;;;;5035297;28;20399;-69
2024/03/24 07:44:07;;;;;;;16.20;6.90;;;5.20;99.90;;;;;;5035045;28;20387;-70
2024/03/24 07:46:33;;;;;;;18.27;6.93;;;5.40;99.90;;;;;;5033987;28;20441;-69
2024/03/24 07:48:58;;;;;;;11.40;6.37;;;5.50;99.90;;;;;;5034052;28;20391;-70
2024/03/24 07:51:26;;;;;;;15.30;6.60;;;5.60;99.90;;;;;;5035281;28;20441;-71
2024/03/24 07:53:52;;;;;;;16.30;7.10;;;5.60;99.90;;;;;;5035502;28;20398;-70
2024/03/24 07:56:18;;;;;;;23.70;8.60;;;5.60;99.90;;;;;;5036034;28;20869;-72
2024/03/24 07:58:43;;;;;;;18.60;7.00;;;5.80;99.90;;;;;;5034839;28;20380;-71
2024/03/24 08:01:09;;;;;;;17.30;6.90;;;5.90;99.90;;;;;;5033141;28;20456;-70
2024/03/24 08:03:34;;;;;;;16.50;6.75;;;6.00;99.90;;;;;;5034512;28;20394;-70
2024/03/24 08:06:00;;;;;;;15.02;4.80;;;6.20;99.90;;;;;;5034432;28;20429;-69
2024/03/24 08:08:26;;;;;;;13.83;5.10;;;6.30;99.90;;;;;;5035335;28;20417;-71
2024/03/24 08:10:51;;;;;;;12.90;4.83;;;6.30;99.90;;;;;;5034734;28;20443;-70
2024/03/24 08:13:17;;;;;;;13.80;5.67;;;6.10;99.90;;;;;;5035180;28;20391;-72
2024/03/24 08:15:43;;;;;;;13.90;5.40;;;6.00;99.90;;;;;;5033513;28;20387;-71
2024/03/24 08:18:09;;;;;;;8.68;5.55;;;6.10;99.90;;;;;;5032248;28;20419;-70
2024/03/24 08:20:34;;;;;;;13.80;5.50;;;6.20;99.90;;;;;;5033694;28;20397;-70
2024/03/24 08:23:00;;;;;;;13.77;5.90;;;6.10;99.90;;;;;;5035203;28;20406;-69
2024/03/24 08:25:25;;;;;;;14.15;6.45;;;6.00;99.90;;;;;;5033141;28;20395;-69
2024/03/24 08:27:51;;;;;;;19.30;6.70;;;6.30;99.90;;;;;;5045472;23;20427;-73
2024/03/24 08:30:17;;;;;;;15.60;6.63;;;6.20;99.90;;;;;;5031263;28;20379;-74
2024/03/24 08:32:42;;;;;;;16.93;7.00;;;6.40;99.90;;;;;;5013888;28;20390;-74
2024/03/24 08:35:08;;;;;;;16.80;6.80;;;6.40;99.90;;;;;;5031091;28;20824;-75
2024/03/24 08:37:33;;;;;;;15.20;6.30;;;6.30;99.90;;;;;;5031270;28;20512;-74
2024/03/24 08:39:59;;;;;;;16.57;6.90;;;6.40;99.90;;;;;;5030787;28;20387;-75
2024/03/24 08:42:26;;;;;;;14.50;7.20;;;6.30;99.90;;;;;;5031054;28;20417;-74
2024/03/24 08:44:52;;;;;;;17.98;8.70;;;6.50;99.90;;;;;;5031112;28;20784;-74
2024/03/24 08:47:17;;;;;;;14.35;6.70;;;6.80;99.90;;;;;;5031279;28;20390;-74
2024/03/24 08:49:43;;;;;;;16.15;6.03;;;7.20;99.90;;;;;;5015853;28;20387;-73
2024/03/24 08:52:08;;;;;;;11.20;6.30;;;7.30;99.90;;;;;;5039199;28;20397;-74
2024/03/24 08:54:34;;;;;;;15.40;7.10;;;7.20;99.90;;;;;;5041034;28;20446;-74
2024/03/24 08:56:59;;;;;;;17.25;6.57;;;7.10;99.90;;;;;;5036627;28;20394;-74
2024/03/24 08:59:25;;;;;;;16.45;6.75;;;7.20;99.90;;;;;;5017261;28;20726;-74
2024/03/24 09:01:51;;;;;;;16.33;6.80;;;7.30;99.90;;;;;;5035487;28;20415;-74
2024/03/24 09:04:16;;;;;;;9.60;5.97;;;7.60;99.90;;;;;;5035261;28;20387;-75
2024/03/24 09:06:43;;;;;;;18.38;6.85;;;7.80;99.90;;;;;;5018896;28;20379;-73
2024/03/24 09:09:09;;;;;;;16.27;6.28;;;8.00;91.20;;;;;;5018177;28;20402;-75
2024/03/24 09:11:34;;;;;;;20.43;7.27;;;8.00;89.10;;;;;;5035914;28;20387;-74
2024/03/24 09:14:00;;;;;;;13.30;6.43;;;8.20;88.90;;;;;;5035421;28;20390;-73
2024/03/24 09:16:25;;;;;;;20.70;6.93;;;8.30;85.80;;;;;;5035502;28;20418;-75
2024/03/24 09:18:51;;;;;;;16.63;7.17;;;8.40;83.80;;;;;;5035335;28;20415;-74
2024/03/24 09:21:16;;;;;;;18.92;6.95;;;8.40;84.50;;;;;;5035352;28;20387;-74
2024/03/24 09:23:42;;;;;;;13.85;7.25;;;8.50;82.50;;;;;;5035294;28;20386;-74
2024/03/24 09:26:07;;;;;;;14.13;7.13;;;8.70;73.60;;;;;;5035477;28;20454;-74
2024/03/24 09:28:33;;;;;;;14.50;6.30;;;8.70;71.40;;;;;;5034902;28;20995;-74
2024/03/24 09:31:00;;;;;;;16.17;6.80;;;8.80;64.20;;;;;;5035053;28;20865;-74
2024/03/24 09:33:26;;;;;;;12.50;6.18;;;8.70;68.60;;;;;;5035194;28;20464;-74
2024/03/24 09:35:53;;;;;;;14.88;6.72;;;8.80;65.60;;;;;;5034520;28;20939;-75
2024/03/24 09:38:19;;;;;;;18.73;6.80;;;8.80;69.70;;;;;;5034793;28;20857;-75
2024/03/24 09:40:45;;;;;;;13.57;6.25;;;9.00;62.90;;;;;;5034376;28;20387;-74
2024/03/24 09:43:12;;;;;;;16.75;6.38;;;9.10;58.50;;;;;;5034911;28;20564;-73
2024/03/24 09:45:38;;;;;;;21.30;6.90;;;9.30;57.20;;;;;;5034678;28;20375;-75
2024/03/24 09:48:06;;;;;;;15.97;6.47;;;9.50;56.30;;;;;;5016531;28;20398;-74
2024/03/24 09:50:36;;;;;;;15.37;5.93;;;9.50;51.20;;;;;;5034349;28;20503;-74
2024/03/24 09:53:03;;;;;;;17.15;7.15;;;9.50;58.10;;;;;;5034509;28;20378;-74
2024/03/24 09:55:28;;;;;;;13.32;5.80;;;9.70;54.50;;;;;;5034077;28;20422;-72
2024/03/24 09:57:55;;;;;;;13.87;5.70;;;9.80;47.20;;;;;;5034352;28;20472;-75
2024/03/24 10:00:24;;;;;;;17.50;5.68;;;9.90;47.00;;;;;;5034155;28;20391;-74
2024/03/24 10:02:50;;;;;;;12.50;4.53;;;10.00;48.40;;;;;;5034358;28;20399;-74
2024/03/24 10:05:16;;;;;;;10.32;4.60;;;10.00;40.20;;;;;;5034604;28;20380;-74
2024/03/24 10:07:43;;;;;;;12.70;4.82;;;9.90;42.80;;;;;;5034701;28;20412;-75
2024/03/24 10:10:09;;;;;;;10.93;4.63;;;9.80;42.20;;;;;;5035810;28;20375;-74
2024/03/24 10:12:35;;;;;;;18.23;5.60;;;9.80;40.50;;;;;;5045490;28;20391;-73
2024/03/24 10:15:16;;;;;;;10.23;4.30;;;9.90;40.40;;;;;;5034479;28;20722;-75
2024/03/24 10:17:42;;;;;;;12.98;5.05;;;10.00;39.90;;;;;;5034194;28;20731;-74
2024/03/24 10:20:11;;;;;;;12.07;5.20;;;10.00;39.30;;;;;;5034134;28;20394;-75
2024/03/24 10:22:37;;;;;;;15.05;5.15;;;9.80;39.40;;;;;;5033687;28;20415;-74
2024/03/24 10:25:04;;;;;;;17.60;5.90;;;9.70;41.50;;;;;;5033770;28;20854;-75
2024/03/24 10:27:30;;;;;;;18.65;5.53;;;9.70;42.40;;;;;;5034131;28;20375;-74
2024/03/24 10:29:56;;;;;;;14.48;5.20;;;9.60;41.50;;;;;;5033613;28;20407;-73
2024/03/24 10:32:24;;;;;;;13.65;4.40;;;9.70;41.80;;;;;;5016974;28;20482;-74
2024/03/24 10:34:50;;;;;;;16.52;4.30;;;9.90;38.20;;;;;;5015757;28;20395;-74
2024/03/24 10:37:16;;;;;;;11.40;4.10;;;10.10;37.40;;;;;;5034320;28;20726;-73
2024/03/24 10:39:42;;;;;;;14.10;4.18;;;10.40;35.70;;;;;;5033940;28;20885;-74
2024/03/24 10:42:11;;;;;;;10.38;3.80;;;10.40;35.40;;;;;;5033590;28;20446;-74
2024/03/24 10:44:37;;;;;;;15.00;4.60;;;10.30;34.80;;;;;;5034025;28;20394;-75
2024/03/24 10:47:03;;;;;;;13.43;4.10;;;10.20;37.20;;;;;;5033315;28;20512;-74
2024/03/24 10:49:32;;;;;;;11.77;4.32;;;10.20;37.90;;;;;;5032680;28;20864;-75
2024/03/24 10:51:58;;;;;;;15.50;5.18;;;10.50;37.50;;;;;;5032712;28;20949;-74
2024/03/24 10:54:25;;;;;;;11.75;4.57;;;10.70;36.10;;;;;;5035188;28;20482;-73
2024/03/24 10:56:52;;;;;;;14.60;4.50;;;10.60;34.90;;;;;;5040810;28;21008;-74
2024/03/24 10:59:20;;;;;;;19.10;4.95;;;10.40;34.80;;;;;;5039265;28;20444;-75
2024/03/24 11:01:45;;;;;;;12.88;3.40;;;10.40;36.70;;;;;;5021083;28;20788;-75
2024/03/24 11:04:11;;;;;;;12.90;3.57;;;10.40;36.00;;;;;;5033732;28;20387;-74
2024/03/24 11:06:38;;;;;;;9.77;3.23;;;10.60;35.00;;;;;;5033079;28;21184;-74
2024/03/24 11:09:05;;;;;;;11.10;3.55;;;10.50;33.80;;;;;;5033161;28;20391;-74
2024/03/24 11:11:32;;;;;;;9.70;2.50;;;10.20;34.50;;;;;;5015109;28;20391;-76
2024/03/24 11:14:00;;;;;;;11.57;3.05;;;9.30;46.80;;;;;;5033276;28;20413;-73
2024/03/24 11:16:25;;;;;;;10.95;3.20;;;8.50;51.60;;;;;;5032962;28;20383;-75
2024/03/24 11:18:51;;;;;;;8.23;3.45;;;8.30;56.50;;;;;;5032680;28;20447;-74
2024/03/24 11:21:34;;;;;;;14.60;3.55;;;8.40;57.70;;;;;;5031772;28;20391;-75
2024/03/24 11:24:00;;;;;;;13.40;3.55;;;8.70;53.30;;;;;;5032493;28;20390;-73
2024/03/24 11:26:29;;;;;;;11.63;3.65;;;8.90;50.70;;;;;;5014892;28;20387;-73
2024/03/24 11:28:55;;;;;;;14.77;3.80;;;8.90;50.20;;;;;;5032132;28;20395;-74
2024/03/24 11:31:21;;;;;;;11.57;3.87;;;9.00;51.00;;;;;;5031953;28;20581;-74
2024/03/24 11:34:11;;;;;;;18.90;3.60;;;9.20;50.00;;;;;;5032254;28;20466;-73
2024/03/24 11:36:40;;;;;;;10.30;3.10;;;9.40;47.80;;;;;;5032084;28;20451;-75
2024/03/24 11:39:09;;;;;;;12.95;3.15;;;9.70;47.50;;;;;;5032029;28;20922;-74
2024/03/24 11:41:35;;;;;;;14.48;3.65;;;9.80;45.60;;;;;;5032883;28;20426;-75
2024/03/24 11:44:03;;;;;;;15.17;3.90;;;9.70;43.60;;;;;;5037943;28;20383;-75
2024/03/24 11:46:30;;;;;;;17.10;4.20;;;9.70;44.50;;;;;;5035724;28;20418;-74
2024/03/24 11:48:57;;;;;;;11.65;3.60;;;9.60;54.60;;;;;;5034611;28;20429;-74
2024/03/24 11:51:25;;;;;;;7.22;3.60;;;9.40;56.20;;;;;;5037767;28;20376;-74
2024/03/24 11:53:52;;;;;;;9.30;3.22;;;9.30;53.60;;;;;;5040412;28;20475;-74
2024/03/24 11:56:22;;;;;;;7.65;3.58;;;9.20;52.40;;;;;;5046857;28;20386;-73
2024/03/24 11:58:53;;;;;;;15.32;3.88;;;9.20;52.20;;;;;;5049395;28;20386;-75
2024/03/24 12:01:21;;;;;;;12.50;3.67;;;9.30;47.60;;;;;;5041951;28;20415;-74
2024/03/24 12:03:48;;;;;;;12.30;3.55;;;9.30;46.90;;;;;;5046020;28;20400;-74
2024/03/24 12:06:14;;;;;;;13.82;3.60;;;9.30;48.20;;;;;;5032352;28;20464;-73
2024/03/24 12:08:41;;;;;;;10.63;3.03;;;9.30;48.10;;;;;;5051025;28;20387;-71
2024/03/24 12:11:07;;;;;;;13.17;3.20;;;9.30;49.50;;;;;;5050422;28;20469;-73
2024/03/24 12:13:33;;;;;;;13.95;2.97;;;9.20;48.20;;;;;;5048761;28;20410;-73
2024/03/24 12:15:58;;;;;;;20.33;4.70;;;8.90;53.10;;;;;;5050280;28;20439;-75
2024/03/24 12:18:24;;;;;;;15.83;4.00;;;8.60;57.10;;;;;;5042881;28;20401;-74
2024/03/24 12:20:50;;;;;;;15.90;3.17;;;8.50;55.60;;;;;;5036230;28;20395;-75
2024/03/24 12:23:16;;;;;;;14.80;3.35;;;;;;;;;;5052073;28;20417;-74
2024/03/24 12:25:45;;;;;;;13.98;3.90;;;7.90;62.10;;;;;;5034631;28;20384;-73
2024/03/24 12:28:18;;;;;;;9.88;4.20;;;7.90;73.30;;;;;;5049236;28;20405;-74
2024/03/24 12:30:54;;;;;;;12.40;3.60;;;7.90;75.00;;;;;;5046737;28;20466;-74
2024/03/24 12:33:24;;;;;;;16.45;3.70;;;8.00;71.00;;;;;;5062166;28;20400;-75
2024/03/24 12:35:52;;;;;;;15.83;3.73;;;8.30;74.70;;;;;;5034031;28;20391;-73
2024/03/24 12:38:18;;;;;;;12.80;4.03;;;8.50;66.10;;;;;;5036202;28;20404;-71
2024/03/24 12:40:57;;;;;;;14.18;3.65;;;8.90;62.30;;;;;;5050801;28;20390;-73
2024/03/24 12:43:26;;;;;;;11.10;3.60;;;8.90;58.80;;;;;;5051396;28;20460;-73